Time;durP1;ratioP1;P1;durP2;ratioP2;P2;SDS_P1;SDS_P2;PMS_P1;PMS_P2;Temp;Humidity;BMP_temperature;BMP_pressure;BME280_temperature;BME280_humidity;BME280_pressure;Samples;Min_cycle;Max_cycle;Signal;HPM_P1;HPM_P2
2021/10/23 00:02:04;;;;;;;17.83;8.77;;;6.70;99.90;;;;;;4904488;28;20448;-87
2021/10/23 00:04:29;;;;;;;14.02;8.18;;;6.70;99.90;;;;;;4932582;29;20425;-86
2021/10/23 00:06:55;;;;;;;15.73;9.43;;;6.70;99.90;;;;;;4902096;28;20046;-86
2021/10/23 00:09:20;;;;;;;17.95;9.63;;;6.80;99.90;;;;;;4919942;28;20091;-86
2021/10/23 00:11:46;;;;;;;20.92;11.85;;;6.80;99.90;;;;;;4912734;28;20031;-86
2021/10/23 00:14:11;;;;;;;18.13;10.82;;;6.70;99.90;;;;;;4917314;28;20370;-86
2021/10/23 00:16:37;;;;;;;30.52;13.50;;;6.70;99.90;;;;;;4934414;28;20055;-87
2021/10/23 00:19:02;;;;;;;24.13;11.82;;;6.70;99.90;;;;;;4919193;28;20061;-86
2021/10/23 00:21:28;;;;;;;25.25;12.88;;;6.70;99.90;;;;;;4939197;28;20031;-86
2021/10/23 00:23:54;;;;;;;19.35;11.43;;;6.70;99.90;;;;;;4905295;28;20171;-86
2021/10/23 00:26:19;;;;;;;28.92;12.77;;;6.80;99.90;;;;;;4927303;28;20035;-86
2021/10/23 00:28:45;;;;;;;26.55;14.95;;;6.90;99.90;;;;;;4934762;28;20043;-86
2021/10/23 00:31:11;;;;;;;26.00;16.77;;;6.90;99.90;;;;;;4902401;28;20039;-86
2021/10/23 00:33:36;;;;;;;37.08;17.55;;;6.80;99.90;;;;;;4938412;28;20035;-87
2021/10/23 00:36:02;;;;;;;22.00;12.40;;;6.80;99.90;;;;;;4906017;29;20363;-86
2021/10/23 00:38:27;;;;;;;30.40;18.25;;;6.90;99.90;;;;;;4942005;28;20031;-86
2021/10/23 00:40:53;;;;;;;26.48;15.50;;;6.90;99.90;;;;;;4917335;28;20043;-86
2021/10/23 00:43:19;;;;;;;22.38;13.57;;;6.80;99.90;;;;;;4900917;29;20495;-86
2021/10/23 00:45:45;;;;;;;25.70;15.27;;;6.80;99.90;;;;;;4938365;28;20436;-86
2021/10/23 00:48:10;;;;;;;22.58;13.68;;;6.80;99.90;;;;;;4903028;28;20023;-86
2021/10/23 00:50:36;;;;;;;23.67;13.02;;;6.90;99.90;;;;;;4907694;28;20031;-86
2021/10/23 00:53:01;;;;;;;22.27;12.18;;;6.90;99.90;;;;;;4908741;28;20031;-86
2021/10/23 00:55:27;;;;;;;13.00;8.93;;;6.90;99.90;;;;;;4916210;28;20170;-86
2021/10/23 00:57:53;;;;;;;20.73;10.90;;;6.80;99.90;;;;;;4909067;28;20042;-86
2021/10/23 01:00:18;;;;;;;23.88;13.63;;;6.80;99.90;;;;;;4921420;28;20077;-86
2021/10/23 01:02:44;;;;;;;32.33;16.58;;;6.80;99.90;;;;;;4908966;28;20026;-86
2021/10/23 01:05:09;;;;;;;19.15;12.82;;;6.70;99.90;;;;;;4906795;28;20024;-86
2021/10/23 01:07:35;;;;;;;24.73;16.48;;;6.80;99.90;;;;;;4911416;28;20039;-86
2021/10/23 01:10:03;;;;;;;21.30;11.20;;;6.80;99.90;;;;;;4913501;28;20478;-86
2021/10/23 01:12:28;;;;;;;17.92;10.13;;;6.80;99.90;;;;;;4932213;28;20038;-85
2021/10/23 01:14:54;;;;;;;22.35;11.55;;;6.80;99.90;;;;;;4923025;28;20504;-86
2021/10/23 01:17:22;;;;;;;29.40;15.70;;;6.90;99.90;;;;;;4902950;29;20027;-86
2021/10/23 01:19:52;;;;;;;26.70;13.73;;;6.80;99.90;;;;;;4933233;28;20483;-86
2021/10/23 01:22:27;;;;;;;32.13;18.00;;;6.80;99.90;;;;;;4898001;28;20137;-86
2021/10/23 01:24:53;;;;;;;27.63;16.20;;;6.80;99.90;;;;;;4914581;28;20042;-86
2021/10/23 01:27:18;;;;;;;28.75;14.23;;;6.80;99.90;;;;;;4910169;28;20039;-86
2021/10/23 01:29:44;;;;;;;25.67;14.27;;;6.70;99.90;;;;;;4937499;28;20062;-86
2021/10/23 01:32:09;;;;;;;26.27;13.48;;;6.80;99.90;;;;;;4938222;28;20484;-86
2021/10/23 01:34:35;;;;;;;20.77;9.93;;;6.80;99.90;;;;;;4939619;28;20034;-86
2021/10/23 01:37:01;;;;;;;27.50;15.45;;;6.80;99.90;;;;;;4913941;28;20040;-86
2021/10/23 01:39:26;;;;;;;22.73;14.50;;;6.90;99.90;;;;;;4919633;28;20032;-86
2021/10/23 01:41:52;;;;;;;33.33;18.38;;;6.80;99.90;;;;;;4906331;28;20043;-86
2021/10/23 01:44:21;;;;;;;28.95;16.05;;;6.90;99.90;;;;;;4906360;28;20535;-86
2021/10/23 01:46:47;;;;;;;30.05;15.82;;;6.90;99.90;;;;;;4935809;28;20042;-86
2021/10/23 01:49:12;;;;;;;35.83;18.52;;;6.80;99.90;;;;;;4901372;28;20086;-86
2021/10/23 01:51:38;;;;;;;37.38;19.08;;;6.80;99.90;;;;;;4924751;28;20438;-86
2021/10/23 01:54:05;;;;;;;35.05;16.95;;;6.80;99.90;;;;;;4896106;29;20552;-86
2021/10/23 01:56:32;;;;;;;36.20;18.42;;;6.70;99.90;;;;;;4938273;28;20035;-86
2021/10/23 01:58:59;;;;;;;37.22;20.50;;;6.80;99.90;;;;;;4894705;28;20488;-86
2021/10/23 02:01:25;;;;;;;31.88;17.92;;;6.80;99.90;;;;;;4910010;28;20397;-86
2021/10/23 02:03:50;;;;;;;33.22;17.73;;;6.80;99.90;;;;;;4923904;28;20058;-86
2021/10/23 02:06:16;;;;;;;40.42;19.05;;;6.70;99.90;;;;;;4903407;28;20075;-86
2021/10/23 02:08:41;;;;;;;28.65;16.50;;;6.70;99.90;;;;;;4910309;28;20058;-86
2021/10/23 02:11:07;;;;;;;30.88;15.75;;;6.70;99.90;;;;;;4897823;28;20479;-86
2021/10/23 02:13:32;;;;;;;38.50;17.83;;;6.70;99.90;;;;;;4930254;28;20027;-86
2021/10/23 02:15:58;;;;;;;37.35;21.23;;;6.80;99.90;;;;;;4905147;28;20043;-86
2021/10/23 02:18:23;;;;;;;37.78;19.25;;;6.70;99.90;;;;;;4911381;28;20392;-86
2021/10/23 02:20:52;;;;;;;27.30;17.88;;;6.70;99.90;;;;;;4910958;28;20595;-86
2021/10/23 02:23:18;;;;;;;31.33;18.33;;;6.60;99.90;;;;;;4904170;28;20083;-86
2021/10/23 02:25:43;;;;;;;30.90;17.63;;;6.60;99.90;;;;;;4928651;28;20050;-86
2021/10/23 02:28:09;;;;;;;27.38;16.67;;;6.60;99.90;;;;;;4906320;28;20039;-86
2021/10/23 02:30:34;;;;;;;30.38;13.98;;;6.60;99.90;;;;;;4930128;28;20031;-86
2021/10/23 02:33:00;;;;;;;30.63;17.92;;;6.50;99.90;;;;;;4928988;28;20388;-86
2021/10/23 02:35:25;;;;;;;31.98;18.25;;;6.60;99.90;;;;;;4920738;28;20118;-86
2021/10/23 02:37:51;;;;;;;31.15;18.75;;;6.50;99.90;;;;;;4930116;28;20039;-87
2021/10/23 02:40:16;;;;;;;32.70;17.98;;;6.50;99.90;;;;;;4912126;28;20256;-87
2021/10/23 02:42:42;;;;;;;25.92;14.23;;;6.40;99.90;;;;;;4942274;28;20399;-86
2021/10/23 02:45:08;;;;;;;40.35;21.52;;;6.40;99.90;;;;;;4927255;28;20043;-86
2021/10/23 02:47:34;;;;;;;36.88;19.45;;;6.40;99.90;;;;;;4942123;28;20112;-86
2021/10/23 02:49:59;;;;;;;35.25;20.10;;;6.30;99.90;;;;;;4931404;28;20487;-86
2021/10/23 02:52:25;;;;;;;36.05;21.15;;;6.50;99.90;;;;;;4914940;28;20456;-86
2021/10/23 02:54:50;;;;;;;32.83;18.85;;;6.50;99.90;;;;;;4904978;28;20039;-86
2021/10/23 02:57:16;;;;;;;37.90;18.83;;;6.50;99.90;;;;;;4908272;28;20035;-86
2021/10/23 02:59:43;;;;;;;34.75;19.70;;;6.50;99.90;;;;;;4902062;28;20392;-86
2021/10/23 03:02:09;;;;;;;47.90;23.42;;;6.50;99.90;;;;;;4906651;28;20038;-86
2021/10/23 03:04:34;;;;;;;40.95;21.65;;;6.50;99.90;;;;;;4910775;28;20492;-86
2021/10/23 03:07:00;;;;;;;39.00;19.10;;;6.50;99.90;;;;;;4911390;29;20039;-86
2021/10/23 03:09:26;;;;;;;28.15;16.52;;;6.50;99.90;;;;;;4906603;28;20063;-86
2021/10/23 03:11:51;;;;;;;38.05;21.15;;;6.50;99.90;;;;;;4920189;29;20039;-86
2021/10/23 03:14:17;;;;;;;47.80;23.90;;;6.50;99.90;;;;;;4905038;28;20122;-86
2021/10/23 03:16:42;;;;;;;42.05;21.77;;;6.50;99.90;;;;;;4907169;28;20074;-86
2021/10/23 03:19:08;;;;;;;33.92;18.10;;;6.50;99.90;;;;;;4919731;29;20509;-86
2021/10/23 03:21:33;;;;;;;32.85;19.25;;;6.60;99.90;;;;;;4942957;28;20036;-86
2021/10/23 03:23:59;;;;;;;36.25;19.52;;;6.60;99.90;;;;;;4905277;28;20042;-86
2021/10/23 03:26:25;;;;;;;34.97;20.70;;;6.60;99.90;;;;;;4907053;28;20058;-87
2021/10/23 03:28:50;;;;;;;36.25;19.42;;;6.60;99.90;;;;;;4907906;28;20046;-87
2021/10/23 03:31:16;;;;;;;39.83;20.70;;;6.60;99.90;;;;;;4903758;28;20144;-87
2021/10/23 03:33:41;;;;;;;48.22;20.35;;;6.50;99.90;;;;;;4933283;28;20398;-86
2021/10/23 03:36:07;;;;;;;32.55;17.70;;;6.50;99.90;;;;;;4906016;29;20038;-86
2021/10/23 03:38:32;;;;;;;32.33;19.13;;;6.50;99.90;;;;;;4944019;28;20045;-87
2021/10/23 03:40:58;;;;;;;35.63;19.63;;;6.50;99.90;;;;;;4917906;28;20054;-87
2021/10/23 03:43:24;;;;;;;38.13;19.25;;;6.50;99.90;;;;;;4900606;28;20047;-87
2021/10/23 03:45:49;;;;;;;40.83;21.33;;;6.50;99.90;;;;;;4920901;28;20093;-87
2021/10/23 03:48:15;;;;;;;39.03;20.10;;;6.40;99.90;;;;;;4906233;28;20691;-86
2021/10/23 03:50:40;;;;;;;36.72;19.85;;;6.40;99.90;;;;;;4936857;28;20035;-86
2021/10/23 03:53:06;;;;;;;38.67;20.58;;;6.30;99.90;;;;;;4902594;28;20106;-86
2021/10/23 03:55:32;;;;;;;42.30;21.13;;;6.30;99.90;;;;;;4910510;28;20034;-86
2021/10/23 03:57:57;;;;;;;30.45;17.65;;;6.40;99.90;;;;;;4905339;28;20027;-86
2021/10/23 04:00:23;;;;;;;30.13;17.15;;;6.30;99.90;;;;;;4908342;29;20031;-86
2021/10/23 04:02:48;;;;;;;31.58;17.55;;;6.40;99.90;;;;;;4900871;29;20027;-86
2021/10/23 04:05:14;;;;;;;33.67;19.02;;;6.40;99.90;;;;;;4903261;28;20038;-86
2021/10/23 04:07:40;;;;;;;36.72;20.33;;;6.40;99.90;;;;;;4912687;28;20451;-86
2021/10/23 04:10:05;;;;;;;40.35;21.88;;;6.30;99.90;;;;;;4910439;28;20042;-86
2021/10/23 04:12:31;;;;;;;44.72;21.75;;;6.30;99.90;;;;;;4933105;28;20562;-86
2021/10/23 04:14:57;;;;;;;39.53;21.00;;;6.30;99.90;;;;;;4912198;28;20042;-86
2021/10/23 04:17:25;;;;;;;40.85;21.27;;;6.20;99.90;;;;;;4923275;28;20122;-86
2021/10/23 04:19:50;;;;;;;33.28;17.95;;;6.30;99.90;;;;;;4940274;28;20558;-86
2021/10/23 04:22:16;;;;;;;35.38;18.55;;;6.20;99.90;;;;;;4907023;28;20118;-86
2021/10/23 04:24:42;;;;;;;37.17;19.20;;;6.20;99.90;;;;;;4940531;28;20257;-86
2021/10/23 04:27:08;;;;;;;37.50;20.77;;;6.20;99.90;;;;;;4907463;28;20376;-86
2021/10/23 04:29:33;;;;;;;33.20;19.10;;;6.10;99.90;;;;;;4937998;28;20551;-86
2021/10/23 04:31:59;;;;;;;36.75;19.83;;;6.20;99.90;;;;;;4906787;28;20039;-86
2021/10/23 04:34:25;;;;;;;42.70;22.83;;;6.10;99.90;;;;;;4907579;28;20086;-86
2021/10/23 04:36:51;;;;;;;45.95;24.00;;;6.10;99.90;;;;;;4912152;29;20136;-86
2021/10/23 04:39:16;;;;;;;41.97;22.70;;;6.10;99.90;;;;;;4934058;28;20035;-86
2021/10/23 04:41:42;;;;;;;41.08;20.35;;;6.10;99.90;;;;;;4922493;28;20342;-86
2021/10/23 04:44:08;;;;;;;52.05;26.30;;;5.90;99.90;;;;;;4905317;29;20086;-86
2021/10/23 04:46:33;;;;;;;38.83;20.48;;;6.00;99.90;;;;;;4936336;28;20125;-87
2021/10/23 04:48:59;;;;;;;46.60;20.75;;;6.00;99.90;;;;;;4925182;28;20102;-86
2021/10/23 04:51:24;;;;;;;36.05;17.85;;;6.00;99.90;;;;;;4908320;28;20028;-86
2021/10/23 04:53:50;;;;;;;51.75;25.92;;;6.00;99.90;;;;;;4907577;28;20042;-86
2021/10/23 04:56:17;;;;;;;42.30;20.95;;;6.00;99.90;;;;;;4900827;28;20566;-86
2021/10/23 04:58:42;;;;;;;51.22;24.48;;;5.90;99.90;;;;;;4926149;28;20062;-85
2021/10/23 05:01:08;;;;;;;53.25;26.42;;;5.90;99.90;;;;;;4919332;28;20464;-85
2021/10/23 05:03:34;;;;;;;41.00;20.23;;;5.80;99.90;;;;;;4936108;28;20031;-85
2021/10/23 05:05:59;;;;;;;43.55;23.13;;;5.80;99.90;;;;;;4901698;28;20535;-86
2021/10/23 05:08:25;;;;;;;48.03;22.77;;;5.90;99.90;;;;;;4908473;28;20515;-86
2021/10/23 05:10:51;;;;;;;37.85;21.65;;;5.80;99.90;;;;;;4921483;29;20536;-86
2021/10/23 05:13:16;;;;;;;48.90;23.52;;;5.70;99.90;;;;;;4900834;28;20031;-86
2021/10/23 05:15:42;;;;;;;40.00;18.42;;;5.80;99.90;;;;;;4924637;28;20035;-86
2021/10/23 05:18:08;;;;;;;43.28;20.83;;;5.60;99.90;;;;;;4904543;28;20031;-86
2021/10/23 05:20:34;;;;;;;43.75;21.08;;;5.70;99.90;;;;;;4926555;28;20027;-86
2021/10/23 05:23:00;;;;;;;57.47;25.20;;;6.00;99.90;;;;;;4922978;28;20094;-86
2021/10/23 05:25:25;;;;;;;38.47;19.77;;;5.90;99.90;;;;;;4910379;28;20031;-86
2021/10/23 05:27:51;;;;;;;37.08;18.77;;;5.90;99.90;;;;;;4911496;28;20114;-86
2021/10/23 05:30:16;;;;;;;38.10;17.83;;;5.90;99.90;;;;;;4918968;28;20428;-86
2021/10/23 05:32:42;;;;;;;46.00;21.92;;;6.00;99.90;;;;;;4928561;28;20514;-86
2021/10/23 05:35:08;;;;;;;41.30;20.60;;;5.90;99.90;;;;;;4904515;28;20388;-87
2021/10/23 05:37:34;;;;;;;67.85;27.05;;;5.90;99.90;;;;;;4928447;28;20074;-87
2021/10/23 05:39:59;;;;;;;49.20;24.02;;;5.90;99.90;;;;;;4905990;29;20068;-87
2021/10/23 05:42:25;;;;;;;47.72;23.38;;;6.00;99.90;;;;;;4912476;28;20561;-87
2021/10/23 05:44:50;;;;;;;48.10;23.38;;;6.00;99.90;;;;;;4943228;28;20065;-87
2021/10/23 05:47:16;;;;;;;35.55;18.10;;;6.00;99.90;;;;;;4910205;28;20110;-87
2021/10/23 05:49:42;;;;;;;44.35;21.52;;;6.00;99.90;;;;;;4911861;28;20030;-87
2021/10/23 05:52:07;;;;;;;43.53;21.77;;;6.10;99.90;;;;;;4910786;28;20601;-86
2021/10/23 05:54:37;;;;;;;44.63;22.45;;;6.20;99.90;;;;;;4928460;28;20545;-86
2021/10/23 05:57:06;;;;;;;49.80;24.00;;;6.10;99.90;;;;;;4903625;28;20031;-87
2021/10/23 05:59:32;;;;;;;53.58;24.80;;;6.10;99.90;;;;;;4942927;28;20553;-86
2021/10/23 06:02:08;;;;;;;64.97;28.95;;;6.10;99.90;;;;;;4906965;28;20028;-86
2021/10/23 06:04:34;;;;;;;62.72;28.35;;;6.20;99.90;;;;;;4907000;28;20041;-86
2021/10/23 06:06:59;;;;;;;50.50;23.45;;;6.10;99.90;;;;;;4903377;28;20039;-86
2021/10/23 06:09:25;;;;;;;67.35;30.17;;;6.10;99.90;;;;;;4906796;28;20066;-86
2021/10/23 06:11:50;;;;;;;65.35;30.92;;;6.10;99.90;;;;;;4928810;28;20035;-86
2021/10/23 06:14:16;;;;;;;50.17;22.50;;;6.10;99.90;;;;;;4908331;28;20039;-86
2021/10/23 06:16:42;;;;;;;57.33;26.45;;;6.00;99.90;;;;;;4927436;28;20062;-86
2021/10/23 06:19:07;;;;;;;60.15;30.08;;;6.00;99.90;;;;;;4910829;28;20069;-86
2021/10/23 06:21:33;;;;;;;59.88;26.35;;;6.10;99.90;;;;;;4934706;28;20475;-86
2021/10/23 06:23:58;;;;;;;60.95;27.65;;;6.10;99.90;;;;;;4905636;28;20054;-86
2021/10/23 06:26:24;;;;;;;50.72;22.90;;;6.20;99.90;;;;;;4907871;29;20035;-86
2021/10/23 06:28:49;;;;;;;45.28;21.88;;;6.20;99.90;;;;;;4930178;28;20034;-90
2021/10/23 06:31:15;;;;;;;50.17;24.20;;;6.30;99.90;;;;;;4908210;28;20118;-85
2021/10/23 06:33:40;;;;;;;49.58;22.17;;;6.30;99.90;;;;;;4907150;28;20126;-86
2021/10/23 06:36:06;;;;;;;56.70;25.75;;;6.40;99.90;;;;;;4909279;28;20120;-86
2021/10/23 06:38:31;;;;;;;45.30;22.67;;;6.40;99.90;;;;;;4939436;28;20097;-85
2021/10/23 06:40:57;;;;;;;45.97;21.88;;;6.40;99.90;;;;;;4908721;29;20066;-86
2021/10/23 06:43:24;;;;;;;46.22;20.52;;;6.50;99.90;;;;;;4905507;28;20043;-86
2021/10/23 06:45:50;;;;;;;66.18;27.30;;;6.50;99.90;;;;;;4921917;28;20554;-85
2021/10/23 06:48:15;;;;;;;56.72;25.92;;;6.50;99.90;;;;;;4903567;29;20043;-86
2021/10/23 06:50:41;;;;;;;54.05;24.40;;;6.60;99.90;;;;;;4940724;29;20420;-85
2021/10/23 06:53:06;;;;;;;55.17;25.20;;;6.60;99.90;;;;;;4936974;28;20042;-85
2021/10/23 06:55:32;;;;;;;60.17;25.83;;;6.70;99.90;;;;;;4938849;28;20039;-85
2021/10/23 06:57:57;;;;;;;52.10;24.85;;;6.70;99.90;;;;;;4911726;28;20038;-85
2021/10/23 07:00:23;;;;;;;65.35;28.20;;;6.80;99.90;;;;;;4916467;29;20038;-86
2021/10/23 07:02:49;;;;;;;77.50;32.50;;;6.80;99.90;;;;;;4942708;28;20045;-85
2021/10/23 07:05:15;;;;;;;77.28;32.78;;;6.80;99.90;;;;;;4903773;28;20035;-86
2021/10/23 07:07:41;;;;;;;48.25;23.92;;;6.80;99.90;;;;;;4914751;28;20046;-85
2021/10/23 07:10:07;;;;;;;62.67;27.52;;;6.80;99.90;;;;;;4921518;28;20031;-85
2021/10/23 07:12:34;;;;;;;73.30;30.98;;;6.90;99.90;;;;;;4907695;28;20126;-86
2021/10/23 07:15:00;;;;;;;70.32;27.83;;;6.90;99.90;;;;;;4907427;28;20134;-86
2021/10/23 07:17:25;;;;;;;62.42;25.90;;;6.90;99.90;;;;;;4907919;28;20036;-86
2021/10/23 07:19:52;;;;;;;70.93;29.58;;;6.90;99.90;;;;;;4912474;28;20107;-86
2021/10/23 07:22:18;;;;;;;70.72;28.58;;;6.90;99.90;;;;;;4902769;29;20103;-86
2021/10/23 07:24:44;;;;;;;57.55;25.00;;;6.90;99.90;;;;;;4939854;28;20043;-85
2021/10/23 07:27:18;;;;;;;51.28;23.60;;;6.90;99.90;;;;;;4898003;28;20516;-86
2021/10/23 07:29:44;;;;;;;47.72;22.30;;;6.90;99.90;;;;;;4922011;29;20031;-86
2021/10/23 07:32:09;;;;;;;47.08;22.08;;;6.90;99.90;;;;;;4904869;28;20031;-85
2021/10/23 07:35:02;;;;;;;54.97;23.15;;;7.00;99.90;;;;;;4939209;28;20447;-85
2021/10/23 07:37:28;;;;;;;33.28;13.30;;;7.10;99.90;;;;;;4925546;28;20038;-85
2021/10/23 07:39:53;;;;;;;48.58;23.83;;;7.00;99.90;;;;;;4933164;28;20404;-85
2021/10/23 07:42:19;;;;;;;54.50;23.92;;;7.20;99.90;;;;;;4901858;28;20047;-85
2021/10/23 07:44:45;;;;;;;44.33;19.63;;;7.10;99.90;;;;;;4938030;28;20035;-86
2021/10/23 07:47:14;;;;;;;43.92;19.92;;;7.20;99.90;;;;;;4912493;28;20590;-85
2021/10/23 07:49:40;;;;;;;32.15;16.60;;;7.30;99.90;;;;;;4910859;28;20577;-84
2021/10/23 07:52:05;;;;;;;47.20;20.92;;;7.40;99.90;;;;;;4922443;29;20093;-85
2021/10/23 07:57:24;;;;;;;57.60;24.80;;;7.50;99.90;;;;;;4880378;29;20087;-85
2021/10/23 07:59:49;;;;;;;63.22;22.77;;;7.50;99.90;;;;;;4895891;28;20050;-85
2021/10/23 08:02:15;;;;;;;58.65;25.08;;;7.50;99.90;;;;;;4907025;28;20458;-85
2021/10/23 08:04:40;;;;;;;57.78;24.30;;;7.50;99.90;;;;;;4924887;28;20698;-85
2021/10/23 08:07:08;;;;;;;52.42;24.00;;;7.60;99.90;;;;;;4906227;28;20391;-85
2021/10/23 08:09:35;;;;;;;57.17;25.45;;;7.60;99.90;;;;;;4939384;28;20031;-85
2021/10/23 08:12:00;;;;;;;68.30;27.08;;;7.60;99.90;;;;;;4908333;28;20038;-85
2021/10/23 08:14:26;;;;;;;63.17;24.50;;;7.70;99.90;;;;;;4911174;28;20125;-84
2021/10/23 08:16:51;;;;;;;55.67;24.48;;;7.80;99.90;;;;;;4937984;28;20130;-84
2021/10/23 08:19:18;;;;;;;55.58;22.33;;;7.80;99.90;;;;;;4905246;28;20031;-85
2021/10/23 08:21:44;;;;;;;57.63;24.15;;;7.80;99.90;;;;;;4939835;28;20030;-84
2021/10/23 08:24:11;;;;;;;22.95;11.60;;;8.00;99.90;;;;;;4924023;29;20036;-85
2021/10/23 08:26:37;;;;;;;49.63;22.17;;;8.20;99.90;;;;;;4943021;28;20035;-85
2021/10/23 08:29:02;;;;;;;50.80;21.23;;;8.30;99.90;;;;;;4910159;28;20042;-85
2021/10/23 08:31:28;;;;;;;47.92;20.70;;;8.40;99.90;;;;;;4937703;28;20028;-85
2021/10/23 08:33:54;;;;;;;48.42;21.20;;;8.30;99.90;;;;;;4926707;28;20038;-85
2021/10/23 08:36:20;;;;;;;41.08;18.27;;;8.30;99.90;;;;;;4906478;28;20032;-85
2021/10/23 08:38:45;;;;;;;46.85;21.45;;;8.50;99.90;;;;;;4924810;28;20444;-85
2021/10/23 08:41:11;;;;;;;48.53;21.08;;;8.60;99.90;;;;;;4919401;28;20085;-85
2021/10/23 08:43:38;;;;;;;50.22;21.38;;;8.60;99.90;;;;;;4908962;28;20036;-85
2021/10/23 08:46:04;;;;;;;48.55;21.58;;;8.90;99.90;;;;;;4902094;28;20035;-85
2021/10/23 08:48:30;;;;;;;44.15;18.35;;;9.00;99.90;;;;;;4934020;28;20088;-85
2021/10/23 08:50:59;;;;;;;41.55;19.98;;;9.20;99.90;;;;;;4940423;28;20035;-85
2021/10/23 08:53:25;;;;;;;40.75;18.08;;;9.50;99.90;;;;;;4911787;28;20089;-85
2021/10/23 08:55:51;;;;;;;42.35;18.48;;;9.60;99.90;;;;;;4942639;28;20031;-85
2021/10/23 08:58:17;;;;;;;39.72;18.45;;;9.30;99.90;;;;;;4909112;28;20118;-86
2021/10/23 09:00:46;;;;;;;41.83;19.40;;;9.40;99.90;;;;;;4914103;28;20070;-85
2021/10/23 09:03:12;;;;;;;44.42;20.25;;;9.40;99.90;;;;;;4899151;29;20037;-86
2021/10/23 09:05:37;;;;;;;37.50;17.05;;;9.80;99.90;;;;;;4936688;28;22316;-86
2021/10/23 09:08:14;;;;;;;39.80;16.40;;;10.10;99.90;;;;;;4898331;28;20503;-86
2021/10/23 09:10:41;;;;;;;44.72;17.17;;;10.10;99.90;;;;;;4931960;28;20035;-86
2021/10/23 09:13:07;;;;;;;33.58;14.15;;;10.20;99.90;;;;;;4908849;28;20043;-87
2021/10/23 09:15:39;;;;;;;45.97;19.60;;;10.20;99.90;;;;;;4925582;28;20050;-86
2021/10/23 09:18:05;;;;;;;49.88;19.70;;;10.50;99.90;;;;;;4894767;28;20035;-86
2021/10/23 09:20:41;;;;;;;43.60;19.00;;;10.40;99.90;;;;;;4919270;28;20037;-86
2021/10/23 09:23:16;;;;;;;43.92;16.83;;;10.80;99.90;;;;;;4925563;28;20097;-86
2021/10/23 09:25:42;;;;;;;43.13;16.75;;;10.70;99.90;;;;;;4927332;28;20492;-86
2021/10/23 09:28:27;;;;;;;40.42;17.75;;;10.90;99.90;;;;;;4904710;28;20098;-86
2021/10/23 09:30:53;;;;;;;42.92;17.88;;;11.10;99.90;;;;;;4926705;28;20499;-85
2021/10/23 09:33:26;;;;;;;46.72;18.50;;;11.20;99.90;;;;;;4924185;28;20038;-86
2021/10/23 09:36:03;;;;;;;48.22;19.17;;;11.30;99.90;;;;;;4913139;28;20062;-86
2021/10/23 09:38:31;;;;;;;46.33;15.15;;;11.40;99.90;;;;;;4908332;28;20130;-85
2021/10/23 09:40:57;;;;;;;42.70;20.50;;;11.20;99.90;;;;;;4932112;28;20046;-86
2021/10/23 09:43:23;;;;;;;47.33;19.95;;;11.40;99.90;;;;;;4896508;28;20120;-86
2021/10/23 09:45:58;;;;;;;52.25;21.08;;;11.10;99.90;;;;;;4921126;28;20035;-85
2021/10/23 09:48:39;;;;;;;46.80;19.02;;;11.30;99.90;;;;;;4935330;28;20098;-86
2021/10/23 09:51:25;;;;;;;42.33;18.65;;;11.50;99.90;;;;;;4920626;28;20039;-86
2021/10/23 09:53:55;;;;;;;41.78;17.75;;;11.80;99.90;;;;;;4899989;28;20026;-86
2021/10/23 09:56:32;;;;;;;39.40;16.58;;;12.00;99.90;;;;;;4900349;28;20039;-86
2021/10/23 09:59:07;;;;;;;45.42;19.63;;;12.10;99.90;;;;;;4915805;28;20043;-86
2021/10/23 10:01:40;;;;;;;39.92;18.45;;;12.10;99.90;;;;;;4908379;28;20028;-86
2021/10/23 10:04:07;;;;;;;44.65;17.00;;;12.00;99.90;;;;;;4906309;28;20077;-85
2021/10/23 10:06:33;;;;;;;40.20;17.40;;;12.10;99.90;;;;;;4937860;28;20039;-86
2021/10/23 10:08:58;;;;;;;43.70;17.13;;;12.20;99.90;;;;;;4904222;29;20169;-85
2021/10/23 10:11:24;;;;;;;40.13;16.45;;;12.80;99.90;;;;;;4900811;28;20476;-86
2021/10/23 10:13:50;;;;;;;39.75;17.95;;;12.80;99.90;;;;;;4906799;28;20070;-86
2021/10/23 10:16:16;;;;;;;35.17;16.05;;;13.00;99.90;;;;;;4903178;28;20038;-86
2021/10/23 10:18:42;;;;;;;36.28;16.73;;;12.70;99.90;;;;;;4937459;28;20798;-86
2021/10/23 10:21:09;;;;;;;38.40;16.60;;;12.80;99.90;;;;;;4900017;28;20031;-87
2021/10/23 10:23:39;;;;;;;42.30;17.80;;;12.80;99.90;;;;;;4920151;28;20027;-86
2021/10/23 10:26:36;;;;;;;40.85;17.23;;;12.90;99.90;;;;;;4901123;29;20031;-85
2021/10/23 10:29:25;;;;;;;36.83;16.05;;;12.80;99.90;;;;;;4931865;28;20504;-86
2021/10/23 10:42:51;;;;;;;36.20;15.57;;;13.50;99.90;;;;;;4948210;28;20480;-86
2021/10/23 10:45:41;;;;;;;36.95;15.20;;;13.70;99.90;;;;;;4901624;28;20035;-86
2021/10/23 10:48:35;;;;;;;32.97;15.88;;;13.60;99.90;;;;;;4918664;28;20039;-86
2021/10/23 10:51:11;;;;;;;35.75;15.05;;;13.60;99.90;;;;;;4942625;28;20041;-86
2021/10/23 10:53:38;;;;;;;35.67;14.07;;;13.60;99.90;;;;;;4940439;28;20036;-87
2021/10/23 10:56:42;;;;;;;30.70;13.07;;;13.60;99.90;;;;;;4899543;28;20035;-86
2021/10/23 10:59:10;;;;;;;29.58;12.55;;;13.80;99.90;;;;;;4929706;28;20054;-87
2021/10/23 11:01:36;;;;;;;26.65;10.27;;;13.90;99.90;;;;;;4932123;28;20051;-86
2021/10/23 11:04:03;;;;;;;23.40;11.23;;;13.90;99.90;;;;;;4905721;29;20047;-86
2021/10/23 11:12:02;;;;;;;24.95;10.45;;;14.00;99.90;;;;;;4953344;28;20034;-87
2021/10/23 11:14:28;;;;;;;25.30;10.00;;;14.10;99.90;;;;;;4889164;29;20503;-88
2021/10/23 11:16:57;;;;;;;22.02;10.25;;;14.10;99.90;;;;;;4950626;28;20086;-84
2021/10/23 11:19:39;;;;;;;19.92;10.82;;;14.20;99.90;;;;;;4936882;28;20063;-87
2021/10/23 11:22:14;;;;;;;20.63;9.75;;;14.30;99.90;;;;;;4880075;29;20568;-84
2021/10/23 11:24:40;;;;;;;22.52;9.18;;;14.40;99.90;;;;;;4924559;29;20035;-86
2021/10/23 11:27:06;;;;;;;17.50;8.65;;;14.50;99.90;;;;;;4918042;28;20121;-85
2021/10/23 11:29:32;;;;;;;18.45;7.95;;;14.50;99.90;;;;;;4920748;28;20035;-84
2021/10/23 11:31:58;;;;;;;17.52;6.78;;;14.50;99.90;;;;;;4899168;29;20055;-85
2021/10/23 11:34:30;;;;;;;18.77;9.15;;;14.70;99.90;;;;;;4904076;28;20042;-85
2021/10/23 11:37:01;;;;;;;19.52;8.43;;;14.80;99.90;;;;;;4923415;29;20073;-85
2021/10/23 11:39:27;;;;;;;16.50;6.93;;;14.80;99.90;;;;;;4938005;28;20039;-85
2021/10/23 11:41:52;;;;;;;14.25;7.78;;;14.90;99.90;;;;;;4916029;29;20087;-85
2021/10/23 11:44:30;;;;;;;12.48;5.75;;;14.80;99.90;;;;;;4903090;28;20041;-85
2021/10/23 11:46:57;;;;;;;15.02;5.53;;;14.70;99.90;;;;;;4916642;28;20045;-85
2021/10/23 11:49:30;;;;;;;10.30;5.05;;;14.70;99.90;;;;;;4914137;28;20050;-85
2021/10/23 11:51:56;;;;;;;13.82;5.78;;;14.60;99.90;;;;;;4918342;28;20054;-85
2021/10/23 11:54:21;;;;;;;13.77;5.75;;;14.40;99.90;;;;;;4940140;29;20035;-84
2021/10/23 11:56:50;;;;;;;15.10;5.72;;;14.50;99.90;;;;;;4936764;28;20027;-85
2021/10/23 11:59:17;;;;;;;10.85;4.68;;;14.60;99.90;;;;;;4886257;29;20032;-84
2021/10/23 12:01:42;;;;;;;11.45;5.05;;;14.60;99.90;;;;;;4907817;28;20036;-85
2021/10/23 12:04:08;;;;;;;12.55;5.35;;;14.50;99.90;;;;;;4919022;29;20058;-85
2021/10/23 12:06:38;;;;;;;19.63;7.00;;;14.60;99.90;;;;;;4921688;29;20051;-85
2021/10/23 12:09:20;;;;;;;14.60;6.43;;;14.80;99.90;;;;;;4940107;29;20035;-85
2021/10/23 12:12:07;;;;;;;15.95;6.47;;;14.90;99.90;;;;;;4918953;29;20895;-85
2021/10/23 12:14:33;;;;;;;15.15;6.25;;;14.90;99.90;;;;;;4917640;28;20122;-84
2021/10/23 12:16:59;;;;;;;13.52;6.90;;;14.90;99.90;;;;;;4923004;28;20126;-85
2021/10/23 12:19:35;;;;;;;15.68;6.30;;;15.10;99.90;;;;;;4926240;28;20024;-85
2021/10/23 12:22:09;;;;;;;15.48;7.13;;;15.20;99.90;;;;;;4897953;29;20042;-86
2021/10/23 12:24:37;;;;;;;17.15;6.30;;;15.10;99.90;;;;;;4934795;28;20034;-86
2021/10/23 12:27:25;;;;;;;10.40;4.50;;;15.30;99.90;;;;;;4901690;29;20050;-86
2021/10/23 12:30:02;;;;;;;8.55;3.50;;;15.80;99.90;;;;;;4911513;29;20505;-86
2021/10/23 12:32:35;;;;;;;7.80;3.22;;;16.00;99.90;;;;;;4920877;28;20043;-85
2021/10/23 12:35:09;;;;;;;9.18;3.53;;;16.10;97.80;;;;;;4925632;28;20538;-85
2021/10/23 12:37:52;;;;;;;7.95;3.00;;;16.40;98.20;;;;;;4898524;28;20062;-85
2021/10/23 12:40:29;;;;;;;9.95;3.45;;;16.40;97.50;;;;;;4922841;29;20524;-86
2021/10/23 12:43:04;;;;;;;6.97;3.13;;;16.40;97.00;;;;;;4900746;29;20393;-85
2021/10/23 12:46:12;;;;;;;7.75;3.40;;;16.40;97.10;;;;;;4924329;28;20519;-86
2021/10/23 12:52:22;;;;;;;8.05;3.22;;;16.40;97.60;;;;;;4853146;29;20049;-85
2021/10/23 13:04:53;;;;;;;5.80;2.72;;;16.50;95.90;;;;;;4893301;29;20053;-86
2021/10/23 13:07:19;;;;;;;7.18;2.58;;;16.50;95.60;;;;;;4891182;29;20437;-85
2021/10/23 13:09:45;;;;;;;5.15;3.22;;;16.30;96.60;;;;;;4904101;28;20039;-86
2021/10/23 13:12:11;;;;;;;4.22;1.75;;;16.30;95.00;;;;;;4914467;29;20475;-86